sensor_id;sensor_type;location;lat;lon;timestamp;temperature;humidity
44277;DHT22;29973;43.742;1.236;2023-02-01T00:14:19;7.10;99.90
44277;DHT22;29973;43.742;1.236;2023-02-01T00:17:31;7.10;99.90
44277;DHT22;29973;43.742;1.236;2023-02-01T00:20:25;7.10;99.90
44277;DHT22;29973;43.742;1.236;2023-02-01T00:23:09;7.20;99.90
44277;DHT22;29973;43.742;1.236;2023-02-01T00:26:20;7.20;99.90
44277;DHT22;29973;43.742;1.236;2023-02-01T00:29:14;7.10;99.90
44277;DHT22;29973;43.742;1.236;2023-02-01T00:32:26;7.10;99.90
44277;DHT22;29973;43.742;1.236;2023-02-01T00:38:32;7.10;99.90
44277;DHT22;29973;43.742;1.236;2023-02-01T00:41:10;7.00;99.90
44277;DHT22;29973;43.742;1.236;2023-02-01T00:44:01;6.90;99.90
44277;DHT22;29973;43.742;1.236;2023-02-01T00:47:15;7.00;99.90
44277;DHT22;29973;43.742;1.236;2023-02-01T01:03:33;6.80;99.90
44277;DHT22;29973;43.742;1.236;2023-02-01T01:06:51;7.00;99.90
44277;DHT22;29973;43.742;1.236;2023-02-01T01:42:45;7.00;99.90
44277;DHT22;29973;43.742;1.236;2023-02-01T01:59:32;7.40;99.90
44277;DHT22;29973;43.742;1.236;2023-02-01T02:08:45;7.00;99.90
44277;DHT22;29973;43.742;1.236;2023-02-01T02:14:36;6.60;99.90
44277;DHT22;29973;43.742;1.236;2023-02-01T02:45:12;6.30;99.90
44277;DHT22;29973;43.742;1.236;2023-02-01T02:48:11;6.20;99.90
44277;DHT22;29973;43.742;1.236;2023-02-01T02:57:40;6.20;99.90
44277;DHT22;29973;43.742;1.236;2023-02-01T03:00:30;6.10;99.90
44277;DHT22;29973;43.742;1.236;2023-02-01T03:03:15;6.10;99.90
44277;DHT22;29973;43.742;1.236;2023-02-01T03:06:13;6.10;99.90
44277;DHT22;29973;43.742;1.236;2023-02-01T03:08:49;6.20;99.90
44277;DHT22;29973;43.742;1.236;2023-02-01T03:11:32;6.20;99.90
44277;DHT22;29973;43.742;1.236;2023-02-01T03:21:16;6.20;99.90
44277;DHT22;29973;43.742;1.236;2023-02-01T03:27:02;6.30;99.90
44277;DHT22;29973;43.742;1.236;2023-02-01T03:32:42;6.30;99.90
44277;DHT22;29973;43.742;1.236;2023-02-01T03:39:29;6.30;99.90
44277;DHT22;29973;43.742;1.236;2023-02-01T03:45:22;6.20;99.90
44277;DHT22;29973;43.742;1.236;2023-02-01T03:48:08;6.20;99.90
44277;DHT22;29973;43.742;1.236;2023-02-01T03:50:39;6.30;99.90
44277;DHT22;29973;43.742;1.236;2023-02-01T03:56:36;6.30;99.90
44277;DHT22;29973;43.742;1.236;2023-02-01T03:59:48;6.30;99.90
44277;DHT22;29973;43.742;1.236;2023-02-01T04:02:17;6.30;99.90
44277;DHT22;29973;43.742;1.236;2023-02-01T04:05:04;6.30;99.90
44277;DHT22;29973;43.742;1.236;2023-02-01T04:07:54;6.30;99.90
44277;DHT22;29973;43.742;1.236;2023-02-01T04:14:02;6.30;99.90
44277;DHT22;29973;43.742;1.236;2023-02-01T04:16:42;6.20;99.90
44277;DHT22;29973;43.742;1.236;2023-02-01T04:19:44;6.30;99.90
44277;DHT22;29973;43.742;1.236;2023-02-01T04:22:48;6.20;99.90
44277;DHT22;29973;43.742;1.236;2023-02-01T04:32:11;6.10;99.90
44277;DHT22;29973;43.742;1.236;2023-02-01T04:50:13;6.30;99.90
44277;DHT22;29973;43.742;1.236;2023-02-01T04:56:18;6.60;99.90
44277;DHT22;29973;43.742;1.236;2023-02-01T04:59:14;6.70;99.90
44277;DHT22;29973;43.742;1.236;2023-02-01T05:05:46;6.70;99.90
44277;DHT22;29973;43.742;1.236;2023-02-01T05:08:25;6.60;99.90
44277;DHT22;29973;43.742;1.236;2023-02-01T05:14:08;6.40;99.90
44277;DHT22;29973;43.742;1.236;2023-02-01T05:16:57;6.40;99.90
44277;DHT22;29973;43.742;1.236;2023-02-01T05:20:10;6.40;99.90
44277;DHT22;29973;43.742;1.236;2023-02-01T05:23:09;6.40;99.90
44277;DHT22;29973;43.742;1.236;2023-02-01T05:29:16;6.30;99.90
44277;DHT22;29973;43.742;1.236;2023-02-01T05:31:50;6.30;99.90
44277;DHT22;29973;43.742;1.236;2023-02-01T05:34:25;6.40;99.90
44277;DHT22;29973;43.742;1.236;2023-02-01T05:36:54;6.50;99.90
44277;DHT22;29973;43.742;1.236;2023-02-01T05:39:41;6.50;99.90
44277;DHT22;29973;43.742;1.236;2023-02-01T05:45:38;6.60;99.90
44277;DHT22;29973;43.742;1.236;2023-02-01T05:51:47;6.60;99.90
44277;DHT22;29973;43.742;1.236;2023-02-01T05:57:32;6.50;99.90
44277;DHT22;29973;43.742;1.236;2023-02-01T06:00:28;6.30;99.90
44277;DHT22;29973;43.742;1.236;2023-02-01T06:03:13;6.30;99.90
44277;DHT22;29973;43.742;1.236;2023-02-01T06:05:39;6.40;99.90
44277;DHT22;29973;43.742;1.236;2023-02-01T06:08:05;6.50;99.90
44277;DHT22;29973;43.742;1.236;2023-02-01T06:10:33;6.50;99.90
44277;DHT22;29973;43.742;1.236;2023-02-01T06:12:59;6.60;99.90
44277;DHT22;29973;43.742;1.236;2023-02-01T06:15:25;6.70;99.90
44277;DHT22;29973;43.742;1.236;2023-02-01T06:17:50;6.70;99.90
44277;DHT22;29973;43.742;1.236;2023-02-01T06:20:20;6.70;99.90
44277;DHT22;29973;43.742;1.236;2023-02-01T06:22:46;6.80;99.90
44277;DHT22;29973;43.742;1.236;2023-02-01T06:25:11;6.70;99.90
44277;DHT22;29973;43.742;1.236;2023-02-01T06:27:40;6.70;99.90
44277;DHT22;29973;43.742;1.236;2023-02-01T06:30:29;6.80;99.90
44277;DHT22;29973;43.742;1.236;2023-02-01T06:33:01;6.70;99.90
44277;DHT22;29973;43.742;1.236;2023-02-01T06:35:27;6.70;99.90
44277;DHT22;29973;43.742;1.236;2023-02-01T06:41:04;6.80;99.90
44277;DHT22;29973;43.742;1.236;2023-02-01T06:46:38;6.80;99.90
44277;DHT22;29973;43.742;1.236;2023-02-01T06:49:46;6.80;99.90
44277;DHT22;29973;43.742;1.236;2023-02-01T06:52:54;6.80;99.90
44277;DHT22;29973;43.742;1.236;2023-02-01T06:59:52;6.90;99.90
44277;DHT22;29973;43.742;1.236;2023-02-01T07:02:35;6.80;99.90
44277;DHT22;29973;43.742;1.236;2023-02-01T07:05:41;6.90;99.90
44277;DHT22;29973;43.742;1.236;2023-02-01T07:11:57;6.80;99.90
44277;DHT22;29973;43.742;1.236;2023-02-01T07:14:32;6.90;99.90
44277;DHT22;29973;43.742;1.236;2023-02-01T07:16:58;6.80;99.90
44277;DHT22;29973;43.742;1.236;2023-02-01T07:19:23;6.90;99.90
44277;DHT22;29973;43.742;1.236;2023-02-01T07:21:49;6.90;99.90
44277;DHT22;29973;43.742;1.236;2023-02-01T07:24:15;6.90;99.90
44277;DHT22;29973;43.742;1.236;2023-02-01T07:26:41;6.90;99.90
44277;DHT22;29973;43.742;1.236;2023-02-01T07:32:17;6.90;99.90
44277;DHT22;29973;43.742;1.236;2023-02-01T07:41:45;6.90;99.90
44277;DHT22;29973;43.742;1.236;2023-02-01T07:44:19;6.90;99.90
44277;DHT22;29973;43.742;1.236;2023-02-01T07:46:48;6.80;99.90
44277;DHT22;29973;43.742;1.236;2023-02-01T07:49:14;6.80;99.90
44277;DHT22;29973;43.742;1.236;2023-02-01T07:51:40;6.90;99.90
44277;DHT22;29973;43.742;1.236;2023-02-01T07:54:06;6.80;99.90
44277;DHT22;29973;43.742;1.236;2023-02-01T07:56:31;6.90;99.90
44277;DHT22;29973;43.742;1.236;2023-02-01T07:58:57;6.90;99.90
44277;DHT22;29973;43.742;1.236;2023-02-01T08:01:26;6.90;99.90
44277;DHT22;29973;43.742;1.236;2023-02-01T08:04:00;6.80;99.90
44277;DHT22;29973;43.742;1.236;2023-02-01T08:06:28;6.80;99.90
44277;DHT22;29973;43.742;1.236;2023-02-01T08:08:54;6.70;99.90
44277;DHT22;29973;43.742;1.236;2023-02-01T08:11:21;6.50;99.90
44277;DHT22;29973;43.742;1.236;2023-02-01T08:13:47;6.40;99.90
44277;DHT22;29973;43.742;1.236;2023-02-01T08:16:15;6.40;99.90
44277;DHT22;29973;43.742;1.236;2023-02-01T08:18:41;6.40;99.90
44277;DHT22;29973;43.742;1.236;2023-02-01T08:21:12;6.30;99.90
44277;DHT22;29973;43.742;1.236;2023-02-01T08:23:39;6.30;99.90
44277;DHT22;29973;43.742;1.236;2023-02-01T08:26:15;6.20;99.90
44277;DHT22;29973;43.742;1.236;2023-02-01T08:28:44;6.20;99.90
44277;DHT22;29973;43.742;1.236;2023-02-01T08:31:12;6.30;99.90
44277;DHT22;29973;43.742;1.236;2023-02-01T08:33:41;6.40;99.90
44277;DHT22;29973;43.742;1.236;2023-02-01T08:36:08;6.50;99.90
44277;DHT22;29973;43.742;1.236;2023-02-01T08:38:38;6.60;99.90
44277;DHT22;29973;43.742;1.236;2023-02-01T08:41:10;6.60;99.90
44277;DHT22;29973;43.742;1.236;2023-02-01T08:43:37;6.40;99.90
44277;DHT22;29973;43.742;1.236;2023-02-01T08:46:04;6.30;99.90
44277;DHT22;29973;43.742;1.236;2023-02-01T08:48:30;6.30;99.90
44277;DHT22;29973;43.742;1.236;2023-02-01T08:50:56;6.50;99.90
44277;DHT22;29973;43.742;1.236;2023-02-01T08:53:21;6.70;99.90
44277;DHT22;29973;43.742;1.236;2023-02-01T08:55:47;6.70;99.90
44277;DHT22;29973;43.742;1.236;2023-02-01T08:58:13;6.40;99.90
44277;DHT22;29973;43.742;1.236;2023-02-01T09:00:40;6.30;99.90
44277;DHT22;29973;43.742;1.236;2023-02-01T09:03:08;6.10;99.90
44277;DHT22;29973;43.742;1.236;2023-02-01T09:05:35;6.30;99.90
44277;DHT22;29973;43.742;1.236;2023-02-01T09:08:01;6.70;99.90
44277;DHT22;29973;43.742;1.236;2023-02-01T09:10:26;6.80;99.90
44277;DHT22;29973;43.742;1.236;2023-02-01T09:12:52;6.90;99.90
44277;DHT22;29973;43.742;1.236;2023-02-01T09:15:18;7.00;99.90
44277;DHT22;29973;43.742;1.236;2023-02-01T09:17:43;7.10;99.90
44277;DHT22;29973;43.742;1.236;2023-02-01T09:20:10;7.10;99.90
44277;DHT22;29973;43.742;1.236;2023-02-01T09:22:35;7.40;99.90
44277;DHT22;29973;43.742;1.236;2023-02-01T09:25:01;7.50;99.90
44277;DHT22;29973;43.742;1.236;2023-02-01T09:27:27;7.50;99.90
44277;DHT22;29973;43.742;1.236;2023-02-01T09:29:53;7.50;99.90
44277;DHT22;29973;43.742;1.236;2023-02-01T09:32:23;7.60;99.90
44277;DHT22;29973;43.742;1.236;2023-02-01T09:34:52;7.50;99.90
44277;DHT22;29973;43.742;1.236;2023-02-01T09:37:19;8.00;99.90
44277;DHT22;29973;43.742;1.236;2023-02-01T09:39:45;8.90;99.90
44277;DHT22;29973;43.742;1.236;2023-02-01T09:47:35;11.70;95.30
44277;DHT22;29973;43.742;1.236;2023-02-01T09:50:15;12.10;94.10
44277;DHT22;29973;43.742;1.236;2023-02-01T09:53:10;12.70;92.00
44277;DHT22;29973;43.742;1.236;2023-02-01T09:55:43;12.40;91.50
44277;DHT22;29973;43.742;1.236;2023-02-01T09:58:25;11.50;92.40
44277;DHT22;29973;43.742;1.236;2023-02-01T10:00:57;11.30;92.90
44277;DHT22;29973;43.742;1.236;2023-02-01T10:03:34;13.00;90.70
44277;DHT22;29973;43.742;1.236;2023-02-01T10:26:27;12.20;91.90
44277;DHT22;29973;43.742;1.236;2023-02-01T10:29:01;12.20;91.80
44277;DHT22;29973;43.742;1.236;2023-02-01T10:31:31;11.20;95.10
44277;DHT22;29973;43.742;1.236;2023-02-01T10:34:06;12.00;94.10
44277;DHT22;29973;43.742;1.236;2023-02-01T10:36:42;12.90;93.00
44277;DHT22;29973;43.742;1.236;2023-02-01T10:39:18;13.30;92.90
44277;DHT22;29973;43.742;1.236;2023-02-01T10:41:54;11.90;92.60
44277;DHT22;29973;43.742;1.236;2023-02-01T10:44:27;11.20;96.20
44277;DHT22;29973;43.742;1.236;2023-02-01T10:46:54;11.20;96.70
44277;DHT22;29973;43.742;1.236;2023-02-01T10:49:34;10.40;96.80
44277;DHT22;29973;43.742;1.236;2023-02-01T10:54:36;10.50;98.70
44277;DHT22;29973;43.742;1.236;2023-02-01T10:57:09;10.50;99.10
44277;DHT22;29973;43.742;1.236;2023-02-01T10:59:36;9.80;99.90
44277;DHT22;29973;43.742;1.236;2023-02-01T11:02:32;9.60;99.90
44277;DHT22;29973;43.742;1.236;2023-02-01T11:05:10;10.10;99.90
44277;DHT22;29973;43.742;1.236;2023-02-01T11:07:38;10.20;99.90
44277;DHT22;29973;43.742;1.236;2023-02-01T11:10:10;9.90;99.90
44277;DHT22;29973;43.742;1.236;2023-02-01T11:12:55;10.00;99.90
44277;DHT22;29973;43.742;1.236;2023-02-01T11:15:23;9.90;99.90
44277;DHT22;29973;43.742;1.236;2023-02-01T11:17:51;9.50;99.90
44277;DHT22;29973;43.742;1.236;2023-02-01T11:22:59;9.80;99.90
44277;DHT22;29973;43.742;1.236;2023-02-01T11:25:25;9.90;99.90
44277;DHT22;29973;43.742;1.236;2023-02-01T11:27:53;10.20;99.90
44277;DHT22;29973;43.742;1.236;2023-02-01T11:30:32;10.20;99.90
44277;DHT22;29973;43.742;1.236;2023-02-01T11:32:59;10.30;99.90
44277;DHT22;29973;43.742;1.236;2023-02-01T11:35:28;10.20;99.90
44277;DHT22;29973;43.742;1.236;2023-02-01T11:37:57;10.20;99.90
44277;DHT22;29973;43.742;1.236;2023-02-01T11:40:45;9.30;99.90
44277;DHT22;29973;43.742;1.236;2023-02-01T11:43:28;9.70;99.90
44277;DHT22;29973;43.742;1.236;2023-02-01T11:46:02;9.80;99.90
44277;DHT22;29973;43.742;1.236;2023-02-01T11:48:31;9.80;99.90
44277;DHT22;29973;43.742;1.236;2023-02-01T11:56:25;9.90;99.90
44277;DHT22;29973;43.742;1.236;2023-02-01T12:01:56;10.10;99.90
44277;DHT22;29973;43.742;1.236;2023-02-01T12:13:23;11.80;96.80
44277;DHT22;29973;43.742;1.236;2023-02-01T12:16:08;11.60;96.40
44277;DHT22;29973;43.742;1.236;2023-02-01T12:21:42;12.30;95.60
44277;DHT22;29973;43.742;1.236;2023-02-01T12:24:45;15.10;92.90
44277;DHT22;29973;43.742;1.236;2023-02-01T12:35:49;15.60;78.20
44277;DHT22;29973;43.742;1.236;2023-02-01T12:44:39;16.40;68.00
44277;DHT22;29973;43.742;1.236;2023-02-01T12:52:11;10.90;92.10
44277;DHT22;29973;43.742;1.236;2023-02-01T12:57:48;10.10;93.10
44277;DHT22;29973;43.742;1.236;2023-02-01T13:05:20;9.70;92.80
44277;DHT22;29973;43.742;1.236;2023-02-01T13:07:51;9.60;93.80
44277;DHT22;29973;43.742;1.236;2023-02-01T13:13:40;9.30;94.50
44277;DHT22;29973;43.742;1.236;2023-02-01T13:16:16;9.30;94.50
44277;DHT22;29973;43.742;1.236;2023-02-01T13:18:46;9.40;94.90
44277;DHT22;29973;43.742;1.236;2023-02-01T13:21:15;9.20;95.00
44277;DHT22;29973;43.742;1.236;2023-02-01T13:23:45;9.20;95.40
44277;DHT22;29973;43.742;1.236;2023-02-01T13:26:11;9.30;95.10
44277;DHT22;29973;43.742;1.236;2023-02-01T13:29:06;9.10;95.00
44277;DHT22;29973;43.742;1.236;2023-02-01T13:45:46;10.10;93.40
44277;DHT22;29973;43.742;1.236;2023-02-01T13:48:27;10.30;93.30
44277;DHT22;29973;43.742;1.236;2023-02-01T13:50:57;10.60;92.70
44277;DHT22;29973;43.742;1.236;2023-02-01T13:53:28;10.10;93.90
44277;DHT22;29973;43.742;1.236;2023-02-01T13:58:37;10.60;93.10
44277;DHT22;29973;43.742;1.236;2023-02-01T14:03:50;11.10;91.10
44277;DHT22;29973;43.742;1.236;2023-02-01T14:09:11;11.00;91.20
44277;DHT22;29973;43.742;1.236;2023-02-01T14:11:46;10.70;91.10
44277;DHT22;29973;43.742;1.236;2023-02-01T14:19:28;10.30;92.50
44277;DHT22;29973;43.742;1.236;2023-02-01T14:22:00;10.20;92.60
44277;DHT22;29973;43.742;1.236;2023-02-01T14:24:34;9.60;92.70
44277;DHT22;29973;43.742;1.236;2023-02-01T14:29:41;9.60;93.90
44277;DHT22;29973;43.742;1.236;2023-02-01T14:32:19;9.50;93.60
44277;DHT22;29973;43.742;1.236;2023-02-01T14:34:49;9.60;93.60
44277;DHT22;29973;43.742;1.236;2023-02-01T14:39:52;9.80;93.80
44277;DHT22;29973;43.742;1.236;2023-02-01T14:55:59;9.60;92.80
44277;DHT22;29973;43.742;1.236;2023-02-01T15:01:05;9.50;92.60
44277;DHT22;29973;43.742;1.236;2023-02-01T15:03:45;9.30;93.00
44277;DHT22;29973;43.742;1.236;2023-02-01T15:09:27;9.30;94.00
44277;DHT22;29973;43.742;1.236;2023-02-01T15:14:31;9.40;94.20
44277;DHT22;29973;43.742;1.236;2023-02-01T15:16:57;9.50;93.40
44277;DHT22;29973;43.742;1.236;2023-02-01T15:19:27;9.30;93.00
44277;DHT22;29973;43.742;1.236;2023-02-01T15:21:55;9.20;92.70
44277;DHT22;29973;43.742;1.236;2023-02-01T15:24:27;9.30;93.10
44277;DHT22;29973;43.742;1.236;2023-02-01T15:26:54;9.40;93.40
44277;DHT22;29973;43.742;1.236;2023-02-01T15:29:22;9.50;93.50
44277;DHT22;29973;43.742;1.236;2023-02-01T15:31:50;9.50;92.40
44277;DHT22;29973;43.742;1.236;2023-02-01T15:34:17;9.40;92.80
44277;DHT22;29973;43.742;1.236;2023-02-01T15:36:44;9.40;92.50
44277;DHT22;29973;43.742;1.236;2023-02-01T15:39:24;9.40;93.30
44277;DHT22;29973;43.742;1.236;2023-02-01T15:41:58;9.30;92.90
44277;DHT22;29973;43.742;1.236;2023-02-01T15:44:52;9.20;93.20
44277;DHT22;29973;43.742;1.236;2023-02-01T15:47:29;9.20;93.30
44277;DHT22;29973;43.742;1.236;2023-02-01T15:49:58;9.20;93.70
44277;DHT22;29973;43.742;1.236;2023-02-01T15:52:36;9.20;93.30
44277;DHT22;29973;43.742;1.236;2023-02-01T15:55:18;9.10;92.40
44277;DHT22;29973;43.742;1.236;2023-02-01T15:57:44;9.10;92.60
44277;DHT22;29973;43.742;1.236;2023-02-01T16:02:58;9.10;92.60
44277;DHT22;29973;43.742;1.236;2023-02-01T16:05:36;9.10;93.00
44277;DHT22;29973;43.742;1.236;2023-02-01T16:10:39;8.90;93.00
44277;DHT22;29973;43.742;1.236;2023-02-01T16:13:06;9.00;92.40
44277;DHT22;29973;43.742;1.236;2023-02-01T16:15:32;9.00;92.80
44277;DHT22;29973;43.742;1.236;2023-02-01T16:17:58;9.00;92.80
44277;DHT22;29973;43.742;1.236;2023-02-01T16:20:24;8.90;93.50
44277;DHT22;29973;43.742;1.236;2023-02-01T16:22:50;8.80;94.60
44277;DHT22;29973;43.742;1.236;2023-02-01T16:25:16;8.70;94.90
44277;DHT22;29973;43.742;1.236;2023-02-01T16:27:42;8.60;95.00
44277;DHT22;29973;43.742;1.236;2023-02-01T16:30:08;8.50;95.00
44277;DHT22;29973;43.742;1.236;2023-02-01T16:32:38;8.50;95.20
44277;DHT22;29973;43.742;1.236;2023-02-01T16:35:25;8.50;95.30
44277;DHT22;29973;43.742;1.236;2023-02-01T16:37:51;8.30;95.60
44277;DHT22;29973;43.742;1.236;2023-02-01T16:40:19;8.20;95.70
44277;DHT22;29973;43.742;1.236;2023-02-01T16:42:49;8.20;95.50
44277;DHT22;29973;43.742;1.236;2023-02-01T16:45:15;8.10;95.70
44277;DHT22;29973;43.742;1.236;2023-02-01T16:47:49;8.00;96.30
44277;DHT22;29973;43.742;1.236;2023-02-01T16:50:26;7.80;97.10
44277;DHT22;29973;43.742;1.236;2023-02-01T16:52:53;7.50;98.20
44277;DHT22;29973;43.742;1.236;2023-02-01T16:55:20;7.10;98.70
44277;DHT22;29973;43.742;1.236;2023-02-01T16:57:47;6.70;99.80
44277;DHT22;29973;43.742;1.236;2023-02-01T17:00:13;6.40;99.90
44277;DHT22;29973;43.742;1.236;2023-02-01T17:02:41;6.20;99.90
44277;DHT22;29973;43.742;1.236;2023-02-01T17:05:08;6.30;99.90
44277;DHT22;29973;43.742;1.236;2023-02-01T17:07:35;6.40;99.90
44277;DHT22;29973;43.742;1.236;2023-02-01T17:10:04;5.90;99.90
44277;DHT22;29973;43.742;1.236;2023-02-01T17:12:32;5.50;99.90
44277;DHT22;29973;43.742;1.236;2023-02-01T17:14:59;5.30;99.90
44277;DHT22;29973;43.742;1.236;2023-02-01T17:17:37;5.20;99.90
44277;DHT22;29973;43.742;1.236;2023-02-01T17:20:04;5.00;99.90
44277;DHT22;29973;43.742;1.236;2023-02-01T17:22:31;5.00;99.90
44277;DHT22;29973;43.742;1.236;2023-02-01T17:24:57;5.00;99.90
44277;DHT22;29973;43.742;1.236;2023-02-01T17:27:22;5.10;99.90
44277;DHT22;29973;43.742;1.236;2023-02-01T17:29:48;5.00;99.90
44277;DHT22;29973;43.742;1.236;2023-02-01T17:32:21;4.90;99.90
44277;DHT22;29973;43.742;1.236;2023-02-01T17:34:47;4.70;99.90
44277;DHT22;29973;43.742;1.236;2023-02-01T17:37:31;4.60;99.90
44277;DHT22;29973;43.742;1.236;2023-02-01T17:39:58;4.30;99.90
44277;DHT22;29973;43.742;1.236;2023-02-01T17:42:25;4.30;99.90
44277;DHT22;29973;43.742;1.236;2023-02-01T17:44:54;4.30;99.90
44277;DHT22;29973;43.742;1.236;2023-02-01T17:47:21;4.10;99.90
44277;DHT22;29973;43.742;1.236;2023-02-01T17:49:47;4.00;99.90
44277;DHT22;29973;43.742;1.236;2023-02-01T17:52:17;4.00;99.90
44277;DHT22;29973;43.742;1.236;2023-02-01T17:54:43;4.00;99.90
44277;DHT22;29973;43.742;1.236;2023-02-01T17:57:12;4.10;99.90
44277;DHT22;29973;43.742;1.236;2023-02-01T17:59:38;4.00;99.90
44277;DHT22;29973;43.742;1.236;2023-02-01T18:02:18;4.00;99.90
44277;DHT22;29973;43.742;1.236;2023-02-01T18:04:44;4.10;99.90
44277;DHT22;29973;43.742;1.236;2023-02-01T18:07:10;4.10;99.90
44277;DHT22;29973;43.742;1.236;2023-02-01T18:09:36;4.30;99.90
44277;DHT22;29973;43.742;1.236;2023-02-01T18:12:04;4.20;99.90
44277;DHT22;29973;43.742;1.236;2023-02-01T18:14:30;4.30;99.90
44277;DHT22;29973;43.742;1.236;2023-02-01T18:16:56;4.30;99.90
44277;DHT22;29973;43.742;1.236;2023-02-01T18:19:22;4.40;99.90
44277;DHT22;29973;43.742;1.236;2023-02-01T18:21:50;4.50;99.90
44277;DHT22;29973;43.742;1.236;2023-02-01T18:24:17;4.60;99.90
44277;DHT22;29973;43.742;1.236;2023-02-01T18:26:43;4.60;99.90
44277;DHT22;29973;43.742;1.236;2023-02-01T18:29:09;4.70;99.90
44277;DHT22;29973;43.742;1.236;2023-02-01T18:31:47;4.90;99.90
44277;DHT22;29973;43.742;1.236;2023-02-01T18:34:16;5.10;99.90
44277;DHT22;29973;43.742;1.236;2023-02-01T18:36:48;5.40;99.90
44277;DHT22;29973;43.742;1.236;2023-02-01T18:39:13;5.60;99.90
44277;DHT22;29973;43.742;1.236;2023-02-01T18:41:39;5.50;99.90
44277;DHT22;29973;43.742;1.236;2023-02-01T18:44:15;5.60;99.90
44277;DHT22;29973;43.742;1.236;2023-02-01T18:46:41;5.50;99.90
44277;DHT22;29973;43.742;1.236;2023-02-01T18:49:07;5.50;99.90
44277;DHT22;29973;43.742;1.236;2023-02-01T18:51:33;5.50;99.90
44277;DHT22;29973;43.742;1.236;2023-02-01T18:53:59;5.70;99.90
44277;DHT22;29973;43.742;1.236;2023-02-01T18:56:24;5.70;99.90
44277;DHT22;29973;43.742;1.236;2023-02-01T18:58:50;5.50;99.90
44277;DHT22;29973;43.742;1.236;2023-02-01T19:01:20;5.40;99.90
44277;DHT22;29973;43.742;1.236;2023-02-01T19:03:47;5.30;99.90
44277;DHT22;29973;43.742;1.236;2023-02-01T19:06:13;5.10;99.90
44277;DHT22;29973;43.742;1.236;2023-02-01T19:08:39;4.90;99.90
44277;DHT22;29973;43.742;1.236;2023-02-01T19:11:06;4.90;99.90
44277;DHT22;29973;43.742;1.236;2023-02-01T19:13:34;4.90;99.90
44277;DHT22;29973;43.742;1.236;2023-02-01T19:16:08;5.00;99.90
44277;DHT22;29973;43.742;1.236;2023-02-01T19:18:35;5.30;99.90
44277;DHT22;29973;43.742;1.236;2023-02-01T19:21:12;5.10;99.90
44277;DHT22;29973;43.742;1.236;2023-02-01T19:23:38;4.90;99.90
44277;DHT22;29973;43.742;1.236;2023-02-01T19:26:16;4.70;99.90
44277;DHT22;29973;43.742;1.236;2023-02-01T19:28:42;4.80;99.90
44277;DHT22;29973;43.742;1.236;2023-02-01T19:31:11;4.80;99.90
44277;DHT22;29973;43.742;1.236;2023-02-01T19:33:37;4.80;99.90
44277;DHT22;29973;43.742;1.236;2023-02-01T19:36:04;4.80;99.90
44277;DHT22;29973;43.742;1.236;2023-02-01T19:38:36;4.60;99.90
44277;DHT22;29973;43.742;1.236;2023-02-01T19:41:02;4.40;99.90
44277;DHT22;29973;43.742;1.236;2023-02-01T19:43:30;4.30;99.90
44277;DHT22;29973;43.742;1.236;2023-02-01T19:45:57;4.20;99.90
44277;DHT22;29973;43.742;1.236;2023-02-01T19:48:22;4.50;99.90
44277;DHT22;29973;43.742;1.236;2023-02-01T19:50:48;4.70;99.90
44277;DHT22;29973;43.742;1.236;2023-02-01T19:53:14;4.50;99.90
44277;DHT22;29973;43.742;1.236;2023-02-01T19:55:44;4.10;99.90
44277;DHT22;29973;43.742;1.236;2023-02-01T19:58:10;3.90;99.90
44277;DHT22;29973;43.742;1.236;2023-02-01T20:00:39;3.90;99.90
44277;DHT22;29973;43.742;1.236;2023-02-01T20:03:06;3.80;99.90
44277;DHT22;29973;43.742;1.236;2023-02-01T20:05:32;3.80;99.90
44277;DHT22;29973;43.742;1.236;2023-02-01T20:08:03;3.80;99.90
44277;DHT22;29973;43.742;1.236;2023-02-01T20:10:42;3.80;99.90
44277;DHT22;29973;43.742;1.236;2023-02-01T20:13:14;3.60;99.90
44277;DHT22;29973;43.742;1.236;2023-02-01T20:15:40;3.30;99.90
44277;DHT22;29973;43.742;1.236;2023-02-01T20:18:10;3.20;99.90
44277;DHT22;29973;43.742;1.236;2023-02-01T20:20:35;3.10;99.90
44277;DHT22;29973;43.742;1.236;2023-02-01T20:23:01;2.90;99.90
44277;DHT22;29973;43.742;1.236;2023-02-01T20:25:35;2.70;99.90
44277;DHT22;29973;43.742;1.236;2023-02-01T20:28:07;2.50;99.90
44277;DHT22;29973;43.742;1.236;2023-02-01T20:30:45;2.20;99.90
44277;DHT22;29973;43.742;1.236;2023-02-01T20:33:14;2.10;99.90
44277;DHT22;29973;43.742;1.236;2023-02-01T20:35:44;2.00;99.90
44277;DHT22;29973;43.742;1.236;2023-02-01T20:38:10;1.90;99.90
44277;DHT22;29973;43.742;1.236;2023-02-01T20:40:36;2.30;99.90
44277;DHT22;29973;43.742;1.236;2023-02-01T20:43:02;2.50;99.90
44277;DHT22;29973;43.742;1.236;2023-02-01T20:45:28;2.60;99.90
44277;DHT22;29973;43.742;1.236;2023-02-01T20:47:55;2.70;99.90
44277;DHT22;29973;43.742;1.236;2023-02-01T20:50:23;2.60;99.90
44277;DHT22;29973;43.742;1.236;2023-02-01T20:52:52;2.70;99.90
44277;DHT22;29973;43.742;1.236;2023-02-01T20:55:18;2.90;99.90
44277;DHT22;29973;43.742;1.236;2023-02-01T20:57:44;3.00;99.90
44277;DHT22;29973;43.742;1.236;2023-02-01T21:00:10;3.10;99.90
44277;DHT22;29973;43.742;1.236;2023-02-01T21:02:40;3.20;99.90
44277;DHT22;29973;43.742;1.236;2023-02-01T21:05:06;3.30;99.90
44277;DHT22;29973;43.742;1.236;2023-02-01T21:07:32;3.40;99.90
44277;DHT22;29973;43.742;1.236;2023-02-01T21:09:58;3.50;99.90
44277;DHT22;29973;43.742;1.236;2023-02-01T21:12:24;3.60;99.90
44277;DHT22;29973;43.742;1.236;2023-02-01T21:14:50;3.50;99.90
44277;DHT22;29973;43.742;1.236;2023-02-01T21:17:15;3.60;99.90
44277;DHT22;29973;43.742;1.236;2023-02-01T21:19:41;3.60;99.90
44277;DHT22;29973;43.742;1.236;2023-02-01T21:22:12;3.70;99.90
44277;DHT22;29973;43.742;1.236;2023-02-01T21:24:38;3.70;99.90
44277;DHT22;29973;43.742;1.236;2023-02-01T21:27:11;3.70;99.90
44277;DHT22;29973;43.742;1.236;2023-02-01T21:29:46;3.80;99.90
44277;DHT22;29973;43.742;1.236;2023-02-01T21:32:18;3.80;99.90
44277;DHT22;29973;43.742;1.236;2023-02-01T21:34:44;3.70;99.90
44277;DHT22;29973;43.742;1.236;2023-02-01T21:37:10;3.80;99.90
44277;DHT22;29973;43.742;1.236;2023-02-01T21:39:41;4.00;99.90
44277;DHT22;29973;43.742;1.236;2023-02-01T21:42:08;4.10;99.90
44277;DHT22;29973;43.742;1.236;2023-02-01T21:44:42;3.90;99.90
44277;DHT22;29973;43.742;1.236;2023-02-01T21:47:10;3.80;99.90
44277;DHT22;29973;43.742;1.236;2023-02-01T21:49:36;3.70;99.90
44277;DHT22;29973;43.742;1.236;2023-02-01T21:52:02;3.60;99.90
44277;DHT22;29973;43.742;1.236;2023-02-01T21:54:28;3.60;99.90
44277;DHT22;29973;43.742;1.236;2023-02-01T21:56:53;3.60;99.90
44277;DHT22;29973;43.742;1.236;2023-02-01T21:59:19;3.80;99.90
44277;DHT22;29973;43.742;1.236;2023-02-01T22:01:57;3.80;99.90
44277;DHT22;29973;43.742;1.236;2023-02-01T22:04:35;3.90;99.90
44277;DHT22;29973;43.742;1.236;2023-02-01T22:07:04;4.00;99.90
44277;DHT22;29973;43.742;1.236;2023-02-01T22:09:30;4.00;99.90
44277;DHT22;29973;43.742;1.236;2023-02-01T22:11:56;4.00;99.90
44277;DHT22;29973;43.742;1.236;2023-02-01T22:14:25;3.90;99.90
44277;DHT22;29973;43.742;1.236;2023-02-01T22:16:51;4.10;99.90
44277;DHT22;29973;43.742;1.236;2023-02-01T22:19:17;4.20;99.90
44277;DHT22;29973;43.742;1.236;2023-02-01T22:21:47;4.10;99.90